Time;durP1;ratioP1;P1;durP2;ratioP2;P2;SDS_P1;SDS_P2;PMS_P1;PMS_P2;Temp;Humidity;BMP_temperature;BMP_pressure;BME280_temperature;BME280_humidity;BME280_pressure;Samples;Min_cycle;Max_cycle;Signal;HPM_P1;HPM_P2
2023/05/12 00:00:05;;;;;;;;;;;;;;;9.71;74.07;92388.19;2048255;70;20503;-72
2023/05/12 00:02:38;;;;;;;;;;;;;;;9.51;74.79;92379.31;2048314;70;20074;-72
2023/05/12 00:05:04;;;;;;;;;;;;;;;9.60;74.41;92379.16;2048957;70;20528;-72
2023/05/12 00:07:36;;;;;;;;;;;;;;;9.75;73.49;92385.63;2048753;70;20059;-73
2023/05/12 00:10:02;;;;;;;;;;;;;;;9.67;74.05;92377.47;2049156;70;20070;-72
2023/05/12 00:12:31;;;;;;;;;;;;;;;9.70;74.30;92376.22;2049024;70;20067;-73
2023/05/12 00:14:58;;;;;;;;;;;;;;;9.71;74.55;92372.06;2049238;70;20512;-72
2023/05/12 00:17:26;;;;;;;;;;;;;;;9.81;73.43;92374.75;2049135;70;20134;-73
2023/05/12 00:19:54;;;;;;;;;;;;;;;9.78;73.50;92381.59;2048972;70;20078;-73
2023/05/12 00:22:22;;;;;;;;;;;;;;;9.63;74.83;92377.22;2048858;70;20047;-75
2023/05/12 00:24:48;;;;;;;;;;;;;;;9.14;77.22;92368.69;2048243;70;20207;-72
2023/05/12 00:27:20;;;;;;;;;;;;;;;9.53;75.00;92374.56;2048710;70;20485;-73
2023/05/12 00:29:49;;;;;;;;;;;;;;;9.55;75.29;92377.47;2048277;69;20063;-72
2023/05/12 00:32:16;;;;;;;;;;;;;;;9.39;75.75;92379.31;2048504;70;20197;-72
2023/05/12 00:34:42;;;;;;;;;;;;;;;9.57;74.98;92374.03;2049005;69;20106;-74
2023/05/12 00:37:10;;;;;;;;;;;;;;;9.61;73.84;92369.38;2047677;70;20630;-73
2023/05/12 00:39:36;;;;;;;;;;;;;;;9.67;74.71;92369.75;2048491;70;20051;-73
2023/05/12 00:42:02;;;;;;;;;;;;;;;9.73;73.95;92365.84;2048230;70;20436;-72
2023/05/12 00:44:27;;;;;;;;;;;;;;;9.54;75.03;92350.00;2054395;69;20046;-73
2023/05/12 00:46:54;;;;;;;;;;;;;;;9.45;74.80;92362.81;2067839;69;20177;-73
2023/05/12 00:49:20;;;;;;;;;;;;;;;9.10;77.65;92368.44;2068112;69;20490;-73
2023/05/12 00:51:46;;;;;;;;;;;;;;;8.83;78.90;92360.47;2055203;70;20148;-73
2023/05/12 00:54:12;;;;;;;;;;;;;;;9.21;76.41;92353.69;2055079;69;20093;-73
2023/05/12 00:56:38;;;;;;;;;;;;;;;9.48;75.05;92352.44;2068023;69;20483;-73
2023/05/12 00:59:05;;;;;;;;;;;;;;;9.53;75.02;92351.31;2067749;69;20065;-72
2023/05/12 01:01:33;;;;;;;;;;;;;;;9.38;75.66;92347.66;2068093;69;20161;-71
2023/05/12 01:04:01;;;;;;;;;;;;;;;9.23;76.79;92347.44;2055291;69;20119;-72
2023/05/12 01:06:34;;;;;;;;;;;;;;;9.21;77.12;92347.31;2067998;69;20070;-72
2023/05/12 01:09:00;;;;;;;;;;;;;;;9.27;75.69;92353.31;2068018;69;20438;-73
2023/05/12 01:11:26;;;;;;;;;;;;;;;9.24;76.04;92352.44;2055261;70;20053;-73
2023/05/12 01:13:52;;;;;;;;;;;;;;;9.18;75.76;92346.47;2068245;69;20053;-73
2023/05/12 01:16:21;;;;;;;;;;;;;;;9.34;75.44;92353.03;2068292;69;20050;-72
2023/05/12 01:18:50;;;;;;;;;;;;;;;9.50;74.50;92355.38;2068194;69;20101;-72
2023/05/12 01:21:16;;;;;;;;;;;;;;;9.57;74.48;92349.47;2068246;69;20505;-72
2023/05/12 01:23:45;;;;;;;;;;;;;;;9.61;74.21;92343.38;2068691;69;20055;-72
2023/05/12 01:26:11;;;;;;;;;;;;;;;9.63;73.66;92341.41;2065925;69;20138;-73
2023/05/12 01:28:39;;;;;;;;;;;;;;;9.04;77.62;92346.34;2055865;70;20050;-73
2023/05/12 01:31:07;;;;;;;;;;;;;;;9.00;77.50;92351.72;2068898;69;20057;-74
2023/05/12 01:33:34;;;;;;;;;;;;;;;9.01;77.80;92346.84;2068794;69;20512;-74
2023/05/12 01:36:00;;;;;;;;;;;;;;;9.16;77.54;92349.91;2055757;69;20050;-73
2023/05/12 01:38:26;;;;;;;;;;;;;;;9.11;76.50;92353.78;2066056;69;20090;-73
2023/05/12 01:40:53;;;;;;;;;;;;;;;9.04;76.74;92343.53;2065682;69;20150;-73
2023/05/12 01:43:19;;;;;;;;;;;;;;;9.09;77.00;92348.06;2065794;69;20574;-74
2023/05/12 01:45:44;;;;;;;;;;;;;;;9.27;76.57;92345.63;2065604;69;20141;-74
2023/05/12 01:48:10;;;;;;;;;;;;;;;9.23;76.42;92355.88;2068340;69;20139;-71
2023/05/12 01:50:36;;;;;;;;;;;;;;;9.15;76.72;92353.31;2068267;69;20070;-72
2023/05/12 01:53:09;;;;;;;;;;;;;;;9.15;76.56;92354.03;2068294;69;20066;-72
2023/05/12 01:55:36;;;;;;;;;;;;;;;9.01;77.58;92355.25;2068105;69;20081;-73
2023/05/12 01:58:03;;;;;;;;;;;;;;;9.10;77.90;92366.38;2068241;69;20077;-73
2023/05/12 02:00:30;;;;;;;;;;;;;;;9.31;76.19;92367.59;2068310;69;20445;-73
2023/05/12 02:02:58;;;;;;;;;;;;;;;9.01;77.83;92367.22;2068367;69;20517;-73
2023/05/12 02:05:23;;;;;;;;;;;;;;;9.00;77.59;92367.84;2068306;69;20145;-73
2023/05/12 02:07:49;;;;;;;;;;;;;;;8.96;78.06;92364.78;2068216;69;20048;-72
2023/05/12 02:10:15;;;;;;;;;;;;;;;9.25;75.96;92356.72;2068167;69;20050;-73
2023/05/12 02:12:40;;;;;;;;;;;;;;;9.00;77.37;92365.03;2055110;70;20452;-72
2023/05/12 02:15:06;;;;;;;;;;;;;;;9.08;77.19;92368.34;2068229;69;20090;-73
2023/05/12 02:17:34;;;;;;;;;;;;;;;8.74;79.10;92358.53;2068489;69;20279;-72
2023/05/12 02:20:04;;;;;;;;;;;;;;;8.89;78.42;92358.06;2068348;69;20137;-72
2023/05/12 02:22:32;;;;;;;;;;;;;;;9.15;77.23;92361.72;2068323;69;20052;-72
2023/05/12 02:24:57;;;;;;;;;;;;;;;8.96;78.05;92354.28;2068430;69;20131;-73
2023/05/12 02:27:23;;;;;;;;;;;;;;;8.40;81.09;92364.19;2065604;69;20204;-73
2023/05/12 02:29:49;;;;;;;;;;;;;;;8.61;80.19;92360.59;2065677;69;20058;-74
2023/05/12 02:32:16;;;;;;;;;;;;;;;8.32;81.49;92360.09;2068418;69;20082;-73
2023/05/12 02:34:46;;;;;;;;;;;;;;;8.28;82.77;92363.38;2068395;69;20085;-74
2023/05/12 02:37:14;;;;;;;;;;;;;;;8.78;79.58;92353.16;2068521;69;20422;-74
2023/05/12 02:39:40;;;;;;;;;;;;;;;9.03;78.02;92352.59;2068584;69;20050;-74
2023/05/12 02:42:07;;;;;;;;;;;;;;;8.85;79.40;92352.94;2055449;70;20110;-73
2023/05/12 02:44:32;;;;;;;;;;;;;;;8.96;78.55;92359.88;2055408;70;20054;-74
2023/05/12 02:46:58;;;;;;;;;;;;;;;9.15;77.36;92356.13;2068454;69;20115;-73
2023/05/12 02:49:23;;;;;;;;;;;;;;;9.20;76.95;92363.44;2055471;70;20083;-73
2023/05/12 02:51:49;;;;;;;;;;;;;;;9.15;77.32;92356.13;2068439;69;20047;-73
2023/05/12 02:54:16;;;;;;;;;;;;;;;9.26;76.40;92358.19;2055369;69;20057;-73
2023/05/12 02:56:44;;;;;;;;;;;;;;;9.15;76.81;92356.13;2068236;69;20051;-73
2023/05/12 02:59:11;;;;;;;;;;;;;;;9.32;76.01;92361.38;2055342;69;20050;-73
2023/05/12 03:01:36;;;;;;;;;;;;;;;9.24;75.68;92366.50;2065703;69;20074;-73
2023/05/12 03:04:02;;;;;;;;;;;;;;;9.13;76.55;92361.63;2068379;69;20050;-73
2023/05/12 03:06:28;;;;;;;;;;;;;;;9.28;76.04;92357.59;2067322;69;20058;-73
2023/05/12 03:08:54;;;;;;;;;;;;;;;8.83;77.52;92357.69;2068376;69;20417;-73
2023/05/12 03:11:21;;;;;;;;;;;;;;;8.39;80.50;92364.81;2067909;69;20053;-73
2023/05/12 03:13:48;;;;;;;;;;;;;;;8.42;80.00;92365.66;2055462;69;20081;-73
2023/05/12 03:16:17;;;;;;;;;;;;;;;8.50;80.25;92366.88;2055697;69;20053;-74
2023/05/12 03:18:42;;;;;;;;;;;;;;;8.27;81.21;92367.53;2068442;69;20058;-74
2023/05/12 03:21:08;;;;;;;;;;;;;;;8.46;80.88;92369.44;2055510;70;20356;-74
2023/05/12 03:23:35;;;;;;;;;;;;;;;8.39;81.02;92367.59;2068413;69;20046;-73
2023/05/12 03:26:01;;;;;;;;;;;;;;;8.80;78.74;92368.06;2068285;69;20050;-73
2023/05/12 03:28:29;;;;;;;;;;;;;;;8.95;78.06;92369.66;2055331;70;20142;-73
2023/05/12 03:30:54;;;;;;;;;;;;;;;9.08;77.19;92374.69;2068296;69;20082;-73
2023/05/12 03:33:22;;;;;;;;;;;;;;;9.10;77.17;92374.06;2068423;69;20057;-73
2023/05/12 03:35:48;;;;;;;;;;;;;;;9.06;77.53;92368.94;2068372;69;20470;-74
2023/05/12 03:38:16;;;;;;;;;;;;;;;9.21;76.38;92370.53;2055362;69;20053;-74
2023/05/12 03:40:41;;;;;;;;;;;;;;;9.15;76.98;92364.53;2055277;70;20054;-74
2023/05/12 03:43:08;;;;;;;;;;;;;;;9.16;76.33;92363.94;2068268;69;20471;-74
2023/05/12 03:45:33;;;;;;;;;;;;;;;9.21;76.02;92366.97;2055368;70;20151;-74
2023/05/12 03:48:00;;;;;;;;;;;;;;;9.23;75.98;92365.03;2055385;70;20050;-73
2023/05/12 03:50:25;;;;;;;;;;;;;;;9.27;75.58;92356.13;2055447;69;20057;-73
2023/05/12 03:52:54;;;;;;;;;;;;;;;9.32;74.97;92361.38;2068314;69;20146;-74
2023/05/12 03:55:20;;;;;;;;;;;;;;;9.34;74.95;92361.47;2055557;69;20069;-74
2023/05/12 03:57:46;;;;;;;;;;;;;;;9.36;75.18;92361.59;2068462;69;20050;-74
2023/05/12 04:00:12;;;;;;;;;;;;;;;9.39;75.45;92354.03;2068429;69;20475;-74
2023/05/12 04:02:45;;;;;;;;;;;;;;;9.39;75.23;92354.03;2063077;69;20048;-75
2023/05/12 04:05:13;;;;;;;;;;;;;;;9.10;76.71;92357.94;2068214;69;20062;-74
2023/05/12 04:07:38;;;;;;;;;;;;;;;9.00;77.38;92359.41;2055352;70;20501;-74
2023/05/12 04:10:04;;;;;;;;;;;;;;;9.18;76.26;92359.78;2068112;69;20054;-74
2023/05/12 04:12:29;;;;;;;;;;;;;;;9.05;77.56;92361.13;2049363;69;20043;-74
2023/05/12 04:14:56;;;;;;;;;;;;;;;9.00;77.67;92359.41;2065483;69;20053;-74
2023/05/12 04:17:23;;;;;;;;;;;;;;;9.28;76.12;92361.13;2068470;69;20052;-73
2023/05/12 04:19:48;;;;;;;;;;;;;;;9.02;76.50;92356.72;2055426;70;20482;-74
2023/05/12 04:22:15;;;;;;;;;;;;;;;9.27;75.28;92359.66;2068188;69;20057;-73
2023/05/12 04:24:40;;;;;;;;;;;;;;;9.34;75.74;92360.75;2055109;70;20088;-74
2023/05/12 04:27:06;;;;;;;;;;;;;;;8.97;76.41;92358.53;2068289;69;20078;-73
2023/05/12 04:29:34;;;;;;;;;;;;;;;8.69;78.15;92357.53;2055378;70;20478;-74
2023/05/12 04:32:02;;;;;;;;;;;;;;;8.79;78.36;92363.03;2068259;69;20058;-74
2023/05/12 04:34:28;;;;;;;;;;;;;;;8.99;77.72;92366.38;2068201;69;20054;-74
2023/05/12 04:36:54;;;;;;;;;;;;;;;9.07;77.52;92366.84;2068325;69;20082;-74
2023/05/12 04:39:20;;;;;;;;;;;;;;;9.38;75.59;92367.34;2055226;70;20102;-74
2023/05/12 04:41:45;;;;;;;;;;;;;;;9.51;75.31;92368.06;2068343;69;20050;-74
2023/05/12 04:44:11;;;;;;;;;;;;;;;9.61;75.21;92375.00;2068056;69;20052;-74
2023/05/12 04:46:39;;;;;;;;;;;;;;;9.57;74.55;92374.78;2068252;69;20116;-74
2023/05/12 04:49:04;;;;;;;;;;;;;;;9.33;76.08;92382.50;2068170;69;20054;-74
2023/05/12 04:51:31;;;;;;;;;;;;;;;9.51;75.28;92371.59;2055160;70;20143;-74
2023/05/12 04:53:57;;;;;;;;;;;;;;;9.70;74.22;92375.50;2055008;70;20070;-74
2023/05/12 04:56:22;;;;;;;;;;;;;;;9.84;74.17;92384.75;2068337;69;20441;-74
2023/05/12 04:58:48;;;;;;;;;;;;;;;9.89;74.05;92380.81;2068616;69;20050;-73
2023/05/12 05:01:15;;;;;;;;;;;;;;;9.98;74.33;92384.84;2068578;69;20078;-73
2023/05/12 05:03:41;;;;;;;;;;;;;;;9.91;74.26;92387.31;2068627;69;20057;-74
2023/05/12 05:06:06;;;;;;;;;;;;;;;9.98;73.53;92391.19;2068659;69;20139;-74
2023/05/12 05:08:32;;;;;;;;;;;;;;;10.06;73.29;92386.03;2068777;69;20050;-75
2023/05/12 05:10:58;;;;;;;;;;;;;;;9.61;74.33;92385.53;2055605;70;20090;-74
2023/05/12 05:13:27;;;;;;;;;;;;;;;9.83;74.92;92391.72;2068710;69;20058;-75
2023/05/12 05:15:53;;;;;;;;;;;;;;;9.86;73.86;92393.31;2068736;69;20065;-74
2023/05/12 05:18:19;;;;;;;;;;;;;;;10.06;73.06;92390.94;2055753;69;20129;-74
2023/05/12 05:20:46;;;;;;;;;;;;;;;10.10;73.13;92391.91;2068685;69;20054;-74
2023/05/12 05:23:13;;;;;;;;;;;;;;;9.74;74.02;92395.41;2055699;70;20058;-74
2023/05/12 05:25:40;;;;;;;;;;;;;;;9.77;74.32;92388.56;2068564;69;20050;-74
2023/05/12 05:28:05;;;;;;;;;;;;;;;9.87;73.87;92395.50;2068196;69;20047;-74
2023/05/12 05:30:31;;;;;;;;;;;;;;;10.21;73.18;92400.91;2065821;69;20078;-75
2023/05/12 05:32:59;;;;;;;;;;;;;;;10.39;72.09;92402.72;2068804;69;20229;-74
2023/05/12 05:35:26;;;;;;;;;;;;;;;10.23;73.11;92392.59;2068706;69;20479;-74
2023/05/12 05:37:54;;;;;;;;;;;;;;;10.59;72.31;92400.31;2068618;69;20042;-74
2023/05/12 05:40:20;;;;;;;;;;;;;;;9.98;73.18;92399.63;2068028;69;20142;-74
2023/05/12 05:42:46;;;;;;;;;;;;;;;9.76;74.52;92403.94;2068586;69;20093;-74
2023/05/12 05:45:11;;;;;;;;;;;;;;;10.30;72.74;92412.03;2065836;69;20092;-75
2023/05/12 05:47:39;;;;;;;;;;;;;;;10.53;72.02;92402.06;2068666;69;20181;-76
2023/05/12 05:50:05;;;;;;;;;;;;;;;10.85;71.03;92401.03;2068531;69;20505;-74
2023/05/12 05:52:33;;;;;;;;;;;;;;;10.53;70.87;92408.41;2068591;69;20054;-74
2023/05/12 05:55:00;;;;;;;;;;;;;;;10.81;69.87;92402.88;2068550;69;20094;-73
2023/05/12 05:57:27;;;;;;;;;;;;;;;10.30;71.74;92402.88;2055617;69;20078;-74
2023/05/12 05:59:54;;;;;;;;;;;;;;;10.82;70.53;92404.38;2065831;69;20061;-74
2023/05/12 06:02:22;;;;;;;;;;;;;;;10.98;69.96;92408.06;2055584;69;20062;-75
2023/05/12 06:04:48;;;;;;;;;;;;;;;11.08;69.62;92405.78;2055629;70;20074;-74
2023/05/12 06:07:14;;;;;;;;;;;;;;;11.15;70.24;92415.31;2068395;69;20058;-75
2023/05/12 06:09:41;;;;;;;;;;;;;;;10.61;71.73;92419.41;2068315;69;20070;-74
2023/05/12 06:12:09;;;;;;;;;;;;;;;11.06;70.10;92411.31;2068521;69;20066;-74
2023/05/12 06:14:35;;;;;;;;;;;;;;;11.24;69.55;92411.59;2068541;69;20472;-75
2023/05/12 06:17:02;;;;;;;;;;;;;;;11.48;68.50;92412.13;2055505;70;20078;-75
2023/05/12 06:19:27;;;;;;;;;;;;;;;11.59;67.83;92404.94;2055566;69;20078;-75
2023/05/12 06:21:54;;;;;;;;;;;;;;;11.43;67.41;92404.81;2068556;69;20458;-75
2023/05/12 06:24:19;;;;;;;;;;;;;;;11.67;68.21;92408.91;2055424;69;20120;-74
2023/05/12 06:26:46;;;;;;;;;;;;;;;11.72;67.82;92412.66;2055729;69;20486;-73
2023/05/12 06:29:11;;;;;;;;;;;;;;;11.33;67.54;92407.84;2055648;69;20054;-73
2023/05/12 06:31:37;;;;;;;;;;;;;;;11.74;67.27;92409.97;2068542;69;20587;-74
2023/05/12 06:34:03;;;;;;;;;;;;;;;11.41;67.81;92416.00;2068660;69;20502;-74
2023/05/12 06:36:32;;;;;;;;;;;;;;;11.64;66.39;92412.28;2066099;69;20115;-74
2023/05/12 06:38:58;;;;;;;;;;;;;;;12.01;64.84;92425.47;2055649;69;20076;-74
2023/05/12 06:41:24;;;;;;;;;;;;;;;12.18;65.27;92414.34;2068551;69;20055;-75
2023/05/12 06:43:51;;;;;;;;;;;;;;;11.56;66.30;92415.38;2055409;69;20061;-75
2023/05/12 06:46:25;;;;;;;;;;;;;;;12.01;66.51;92420.56;2065932;69;20046;-76
2023/05/12 06:48:54;;;;;;;;;;;;;;;11.78;65.53;92410.19;2065687;69;20149;-75
2023/05/12 06:51:21;;;;;;;;;;;;;;;11.85;65.54;92416.88;2068481;69;20046;-75
2023/05/12 06:53:47;;;;;;;;;;;;;;;12.17;65.77;92418.53;2055438;70;20102;-75
2023/05/12 06:56:15;;;;;;;;;;;;;;;12.64;63.54;92420.84;2065587;69;20082;-75
2023/05/12 06:58:42;;;;;;;;;;;;;;;12.72;62.66;92417.69;2068482;69;20050;-75
2023/05/12 07:01:08;;;;;;;;;;;;;;;12.43;63.69;92421.22;2055575;70;20078;-75
2023/05/12 07:03:37;;;;;;;;;;;;;;;12.81;62.99;92418.81;2068240;69;20057;-75
2023/05/12 07:06:02;;;;;;;;;;;;;;;12.54;62.85;92411.88;2068523;69;20050;-76
2023/05/12 07:08:27;;;;;;;;;;;;;;;11.74;64.29;92412.78;2055431;70;20058;-76
2023/05/12 07:10:53;;;;;;;;;;;;;;;12.09;64.68;92418.13;2055255;70;20057;-74
2023/05/12 07:13:19;;;;;;;;;;;;;;;12.44;63.85;92420.56;2055496;70;20415;-74
2023/05/12 07:15:44;;;;;;;;;;;;;;;12.62;63.17;92408.72;2055607;70;20470;-74
2023/05/12 07:18:10;;;;;;;;;;;;;;;12.48;62.33;92416.50;2068349;69;20050;-74
2023/05/12 07:20:37;;;;;;;;;;;;;;;12.01;62.34;92412.09;2055629;70;20046;-75
2023/05/12 07:23:02;;;;;;;;;;;;;;;12.11;62.40;92414.69;2055705;69;20054;-74
2023/05/12 07:25:28;;;;;;;;;;;;;;;12.14;63.11;92414.16;2068389;69;20383;-73
2023/05/12 07:27:54;;;;;;;;;;;;;;;11.66;64.09;92409.53;2055640;70;20093;-73
2023/05/12 07:30:22;;;;;;;;;;;;;;;12.11;62.52;92406.22;2055593;70;20108;-75
2023/05/12 07:32:47;;;;;;;;;;;;;;;11.98;63.45;92396.41;2055606;69;20096;-74
2023/05/12 07:35:16;;;;;;;;;;;;;;;11.94;63.37;92401.84;2068399;69;20406;-76
2023/05/12 07:37:42;;;;;;;;;;;;;;;12.39;63.71;92390.69;2057046;69;20090;-76
2023/05/12 07:40:08;;;;;;;;;;;;;;;13.27;61.97;92388.47;2055555;70;20425;-74
2023/05/12 07:42:37;;;;;;;;;;;;;;;13.31;60.51;92394.31;2056156;70;20086;-77
2023/05/12 07:45:02;;;;;;;;;;;;;;;13.34;60.83;92384.56;2048643;70;20055;-74
2023/05/12 07:47:29;;;;;;;;;;;;;;;12.95;61.10;92389.13;2048928;70;20108;-75
2023/05/12 07:49:54;;;;;;;;;;;;;;;13.02;61.58;92384.50;2048301;69;20373;-74
2023/05/12 07:52:20;;;;;;;;;;;;;;;12.70;61.42;92381.59;2048833;70;20050;-74
2023/05/12 07:54:45;;;;;;;;;;;;;;;13.29;60.49;92383.66;2048641;70;20046;-74
2023/05/12 07:57:11;;;;;;;;;;;;;;;13.31;60.35;92385.84;2048269;70;20054;-74
2023/05/12 07:59:36;;;;;;;;;;;;;;;13.59;60.11;92389.22;2048746;70;20459;-74
2023/05/12 08:02:02;;;;;;;;;;;;;;;13.82;59.80;92383.16;2048213;69;20491;-73
2023/05/12 08:04:27;;;;;;;;;;;;;;;13.78;58.85;92387.91;2048735;70;20156;-73
2023/05/12 08:06:52;;;;;;;;;;;;;;;14.06;59.01;92380.66;2048796;70;20035;-74
2023/05/12 08:09:18;;;;;;;;;;;;;;;13.90;58.12;92375.03;2048798;70;20047;-73
2023/05/12 08:11:43;;;;;;;;;;;;;;;13.21;58.82;92383.97;2048808;70;20058;-73
2023/05/12 08:14:09;;;;;;;;;;;;;;;13.34;58.81;92382.47;2048773;70;20100;-73
2023/05/12 08:16:38;;;;;;;;;;;;;;;13.83;57.71;92369.75;2048776;70;20047;-73
2023/05/12 08:19:04;;;;;;;;;;;;;;;14.35;56.15;92376.22;2048707;70;20182;-73
2023/05/12 08:21:30;;;;;;;;;;;;;;;14.31;57.33;92379.59;2045408;70;20144;-73
2023/05/12 08:23:56;;;;;;;;;;;;;;;14.37;56.58;92370.63;2048021;70;20495;-73
2023/05/12 08:26:22;;;;;;;;;;;;;;;14.69;55.91;92371.25;2048720;70;20046;-73
2023/05/12 08:28:49;;;;;;;;;;;;;;;14.73;55.78;92374.25;2048176;70;20399;-73
2023/05/12 08:31:16;;;;;;;;;;;;;;;14.95;54.80;92369.47;2048768;70;20090;-73
2023/05/12 08:33:41;;;;;;;;;;;;;;;14.96;54.77;92364.53;2049150;70;20051;-73
2023/05/12 08:36:07;;;;;;;;;;;;;;;15.58;55.26;92361.88;2049136;70;20136;-74
2023/05/12 08:38:33;;;;;;;;;;;;;;;15.81;54.10;92367.03;2049055;70;20422;-76
2023/05/12 08:40:59;;;;;;;;;;;;;;;15.41;53.39;92363.41;2048946;70;20051;-74
2023/05/12 08:43:25;;;;;;;;;;;;;;;15.47;53.01;92369.28;2051355;70;20050;-73
2023/05/12 08:45:56;;;;;;;;;;;;;;;16.35;53.10;92370.34;2055747;70;20055;-74
2023/05/12 08:48:26;;;;;;;;;;;;;;;16.49;51.74;92375.75;2055816;69;20111;-73
2023/05/12 08:50:53;;;;;;;;;;;;;;;16.56;52.07;92373.88;2055821;70;20053;-74
2023/05/12 08:53:19;;;;;;;;;;;;;;;15.46;51.65;92371.41;2055673;70;20587;-74
2023/05/12 08:55:46;;;;;;;;;;;;;;;15.01;52.31;92371.81;2068580;69;20180;-74
2023/05/12 08:58:12;;;;;;;;;;;;;;;15.33;52.63;92369.50;2055715;70;20115;-73
2023/05/12 09:00:38;;;;;;;;;;;;;;;16.10;50.88;92374.44;2056054;69;20082;-73
2023/05/12 09:03:05;;;;;;;;;;;;;;;15.98;51.57;92376.84;2065814;69;20061;-74
2023/05/12 09:05:31;;;;;;;;;;;;;;;16.63;50.49;92386.88;2068745;69;20051;-73
2023/05/12 09:07:56;;;;;;;;;;;;;;;15.58;52.02;92382.50;2068561;69;20112;-73
2023/05/12 09:10:24;;;;;;;;;;;;;;;16.07;52.81;92384.28;2068484;69;20054;-73
2023/05/12 09:12:51;;;;;;;;;;;;;;;15.97;50.87;92387.47;2068699;69;20058;-74
2023/05/12 09:15:24;;;;;;;;;;;;;;;16.44;50.21;92388.38;2055718;70;20111;-73
2023/05/12 09:17:50;;;;;;;;;;;;;;;16.52;50.30;92386.53;2068676;69;20116;-73
2023/05/12 09:20:16;;;;;;;;;;;;;;;17.22;50.18;92380.28;2055793;70;20054;-73
2023/05/12 09:22:43;;;;;;;;;;;;;;;16.77;48.89;92376.75;2068594;69;20387;-73
2023/05/12 09:25:17;;;;;;;;;;;;;;;16.25;50.44;92370.72;2063502;69;20087;-73
2023/05/12 09:27:48;;;;;;;;;;;;;;;17.09;48.04;92370.66;2075291;69;20052;-73
2023/05/12 09:30:14;;;;;;;;;;;;;;;16.50;49.46;92375.13;2075192;69;20052;-74
2023/05/12 09:32:40;;;;;;;;;;;;;;;15.66;49.24;92371.44;2071884;69;20148;-73
2023/05/12 09:35:10;;;;;;;;;;;;;;;16.44;49.11;92362.81;2075217;69;20079;-74
2023/05/12 09:37:36;;;;;;;;;;;;;;;16.69;48.14;92365.09;2071875;69;20040;-74
2023/05/12 09:40:03;;;;;;;;;;;;;;;17.83;47.74;92364.34;2075116;69;20052;-73
2023/05/12 09:42:31;;;;;;;;;;;;;;;18.32;44.81;92360.69;2075243;69;20040;-74
2023/05/12 09:45:08;;;;;;;;;;;;;;;18.01;47.57;92367.72;2071934;69;20052;-75
2023/05/12 09:47:36;;;;;;;;;;;;;;;19.32;44.13;92363.19;2072005;69;20051;-74
2023/05/12 09:50:02;;;;;;;;;;;;;;;18.89;44.17;92356.50;2075300;69;20044;-74
2023/05/12 09:52:31;;;;;;;;;;;;;;;20.43;42.71;92357.69;2072028;69;20167;-74
2023/05/12 09:55:18;;;;;;;;;;;;;;;21.49;40.89;92365.25;2071620;69;20203;-73
2023/05/12 09:57:45;;;;;;;;;;;;;;;21.59;39.04;92358.94;2075344;69;20076;-75
2023/05/12 10:00:13;;;;;;;;;;;;;;;19.54;42.22;92351.56;2075252;69;20059;-74
2023/05/12 10:02:43;;;;;;;;;;;;;;;20.11;42.38;92357.78;2075131;69;20153;-74
2023/05/12 10:05:12;;;;;;;;;;;;;;;20.80;41.24;92350.50;2075216;69;20064;-74
2023/05/12 10:07:44;;;;;;;;;;;;;;;19.91;40.61;92347.38;2075135;69;20056;-74
2023/05/12 10:10:12;;;;;;;;;;;;;;;20.98;41.78;92344.38;2075068;69;20118;-75
2023/05/12 10:12:38;;;;;;;;;;;;;;;20.76;40.47;92345.47;2075125;69;20524;-75
2023/05/12 10:15:07;;;;;;;;;;;;;;;21.72;39.80;92346.25;2075093;69;20071;-76
2023/05/12 10:17:34;;;;;;;;;;;;;;;21.36;39.42;92343.59;2071785;69;20048;-74
2023/05/12 10:20:00;;;;;;;;;;;;;;;22.08;36.51;92334.50;2071755;69;20094;-74
2023/05/12 10:22:27;;;;;;;;;;;;;;;22.09;37.52;92344.59;2075153;69;20491;-76
2023/05/12 10:24:53;;;;;;;;;;;;;;;22.47;36.64;92335.00;2075016;69;20151;-74
2023/05/12 10:27:19;;;;;;;;;;;;;;;20.20;40.42;92342.94;2075337;69;20540;-74
2023/05/12 10:29:46;;;;;;;;;;;;;;;21.60;38.34;92331.75;2071780;69;20488;-74
2023/05/12 10:32:12;;;;;;;;;;;;;;;21.59;37.46;92328.16;2071769;69;20095;-74
2023/05/12 10:34:40;;;;;;;;;;;;;;;22.41;37.01;92332.09;2075132;69;20503;-74
2023/05/12 10:37:09;;;;;;;;;;;;;;;22.20;36.86;92322.50;2071907;69;20064;-74
2023/05/12 10:39:48;;;;;;;;;;;;;;;22.58;36.74;92325.06;2075008;69;20052;-75
2023/05/12 10:42:15;;;;;;;;;;;;;;;24.97;32.41;92332.25;2071712;69;20048;-76
2023/05/12 10:44:51;;;;;;;;;;;;;;;23.82;33.69;92316.75;2074991;69;20098;-74
2023/05/12 10:47:17;;;;;;;;;;;;;;;22.60;36.65;92330.84;2075252;69;20052;-75
2023/05/12 10:49:43;;;;;;;;;;;;;;;23.09;34.43;92316.94;2075125;69;20052;-74
2023/05/12 10:52:10;;;;;;;;;;;;;;;22.46;36.58;92316.34;2071807;69;20051;-75
2023/05/12 10:54:38;;;;;;;;;;;;;;;26.67;30.40;92316.16;2074810;69;20139;-75
2023/05/12 10:57:11;;;;;;;;;;;;;;;30.98;26.18;92325.72;2074992;69;20048;-74
2023/05/12 10:59:46;;;;;;;;;;;;;;;27.01;29.55;92321.00;2071767;69;20139;-78
2023/05/12 11:02:14;;;;;;;;;;;;;;;26.48;31.13;92315.53;2075154;69;20072;-74
2023/05/12 11:04:59;;;;;;;;;;;;;;;26.76;28.43;92313.94;2075146;69;20148;-77
2023/05/12 11:07:26;;;;;;;;;;;;;;;29.34;28.19;92309.84;2075200;69;20056;-77
2023/05/12 11:09:52;;;;;;;;;;;;;;;30.00;26.47;92318.91;2074941;69;20048;-76
2023/05/12 11:12:18;;;;;;;;;;;;;;;27.27;26.97;92310.75;2075107;69;20498;-74
2023/05/12 11:14:45;;;;;;;;;;;;;;;27.54;25.92;92311.97;2075093;69;20194;-76
2023/05/12 11:17:10;;;;;;;;;;;;;;;26.21;27.39;92299.75;2075002;69;20048;-76
2023/05/12 11:19:38;;;;;;;;;;;;;;;24.12;30.62;92301.09;2074868;69;20060;-76
2023/05/12 11:22:09;;;;;;;;;;;;;;;24.69;29.76;92307.03;2068980;69;20091;-75
2023/05/12 11:24:35;;;;;;;;;;;;;;;26.39;28.94;92308.34;2074982;69;20147;-74
2023/05/12 11:27:03;;;;;;;;;;;;;;;29.85;24.58;92303.22;2071628;69;20204;-75
2023/05/12 11:29:30;;;;;;;;;;;;;;;25.00;29.51;92299.88;2074982;69;20535;-75
2023/05/12 11:31:56;;;;;;;;;;;;;;;29.38;24.92;92304.00;2068856;69;20152;-75
2023/05/12 11:34:22;;;;;;;;;;;;;;;31.48;23.34;92302.81;2075068;69;20052;-75
2023/05/12 11:36:50;;;;;;;;;;;;;;;35.68;19.69;92303.41;2074929;69;20118;-75
2023/05/12 11:39:16;;;;;;;;;;;;;;;31.84;22.02;92289.56;2071538;69;20046;-76
2023/05/12 11:41:42;;;;;;;;;;;;;;;33.79;21.46;92302.88;2074969;69;20052;-75
2023/05/12 11:44:12;;;;;;;;;;;;;;;29.00;24.46;92296.59;2074915;69;20120;-75
2023/05/12 11:46:38;;;;;;;;;;;;;;;29.48;23.50;92282.81;2074899;69;20129;-75
2023/05/12 11:49:08;;;;;;;;;;;;;;;27.53;27.06;92280.88;2074893;69;20064;-74
2023/05/12 11:51:34;;;;;;;;;;;;;;;35.98;19.45;92292.69;2071576;69;20055;-75
2023/05/12 11:53:59;;;;;;;;;;;;;;;32.52;21.51;92282.66;2075046;69;20052;-76
2023/05/12 11:56:25;;;;;;;;;;;;;;;30.89;22.83;92269.25;2074883;69;20049;-74
2023/05/12 11:58:52;;;;;;;;;;;;;;;32.91;20.77;92281.56;2071734;69;20045;-76
2023/05/12 12:01:19;;;;;;;;;;;;;;;34.20;20.15;92275.25;2071786;69;20045;-76
2023/05/12 12:03:47;;;;;;;;;;;;;;;36.24;18.92;92284.97;2068814;69;20044;-76
2023/05/12 12:06:13;;;;;;;;;;;;;;;37.22;17.64;92280.69;2071825;69;20145;-76
2023/05/12 12:08:48;;;;;;;;;;;;;;;36.68;17.31;92278.72;2074935;69;20055;-76
2023/05/12 12:11:14;;;;;;;;;;;;;;;38.43;16.53;92280.72;2074765;69;20135;-76
2023/05/12 12:13:46;;;;;;;;;;;;;;;36.02;17.33;92272.00;2074941;69;20558;-76
2023/05/12 12:16:11;;;;;;;;;;;;;;;39.47;16.56;92287.00;2071522;69;20047;-76
2023/05/12 12:18:36;;;;;;;;;;;;;;;38.52;15.12;92284.66;2074313;69;20068;-76
2023/05/12 12:21:05;;;;;;;;;;;;;;;32.97;20.80;92271.94;2073957;69;20060;-76
2023/05/12 12:23:32;;;;;;;;;;;;;;;36.08;18.46;92271.03;2071323;69;20114;-76
2023/05/12 12:25:57;;;;;;;;;;;;;;;39.41;15.80;92279.22;2074586;69;20171;-76
2023/05/12 12:28:23;;;;;;;;;;;;;;;34.87;17.88;92269.22;2074663;69;20117;-76
2023/05/12 12:30:48;;;;;;;;;;;;;;;38.76;17.34;92273.88;2074699;69;20124;-77
2023/05/12 12:33:15;;;;;;;;;;;;;;;34.47;17.12;92275.06;2074949;69;20597;-77
2023/05/12 12:35:41;;;;;;;;;;;;;;;39.05;15.91;92267.19;2074946;69;20126;-76
2023/05/12 12:38:07;;;;;;;;;;;;;;;41.74;14.20;92283.13;2074755;69;20041;-76
2023/05/12 12:40:33;;;;;;;;;;;;;;;41.40;13.94;92280.84;2074743;69;20139;-76
2023/05/12 12:42:59;;;;;;;;;;;;;;;40.93;14.85;92271.22;2074719;69;20048;-76
2023/05/12 12:45:29;;;;;;;;;;;;;;;45.09;11.89;92284.72;2074812;69;20060;-76
2023/05/12 12:47:55;;;;;;;;;;;;;;;42.48;13.64;92270.91;2074891;69;20044;-76